sensor_id;sensor_type;location;lat;lon;timestamp;pressure;altitude;pressure_sealevel;temperature;humidity
43298;BME280;28892;55.640;37.532;2022-09-09T00:03:28;99451.78;;;9.08;56.25
43298;BME280;28892;55.640;37.532;2022-09-09T00:11:05;99470.47;;;9.15;56.37
43298;BME280;28892;55.640;37.532;2022-09-09T00:13:38;99467.31;;;9.28;55.88
43298;BME280;28892;55.640;37.532;2022-09-09T00:16:24;99462.22;;;9.18;55.92
43298;BME280;28892;55.640;37.532;2022-09-09T00:19:02;99471.31;;;9.24;55.65
43298;BME280;28892;55.640;37.532;2022-09-09T00:21:34;99472.13;;;9.25;55.51
43298;BME280;28892;55.640;37.532;2022-09-09T00:24:08;99468.66;;;9.16;56.33
43298;BME280;28892;55.640;37.532;2022-09-09T00:26:41;99469.81;;;9.21;56.18
43298;BME280;28892;55.640;37.532;2022-09-09T00:29:28;99466.81;;;9.25;55.38
43298;BME280;28892;55.640;37.532;2022-09-09T00:32:05;99475.25;;;9.20;55.81
43298;BME280;28892;55.640;37.532;2022-09-09T00:34:43;99466.66;;;9.18;56.07
43298;BME280;28892;55.640;37.532;2022-09-09T00:37:10;99470.66;;;9.05;57.15
43298;BME280;28892;55.640;37.532;2022-09-09T00:39:43;99486.53;;;9.14;56.83
43298;BME280;28892;55.640;37.532;2022-09-09T00:42:24;99480.91;;;9.25;56.76
43298;BME280;28892;55.640;37.532;2022-09-09T00:48:10;99488.84;;;9.17;55.86
43298;BME280;28892;55.640;37.532;2022-09-09T00:50:53;99490.16;;;9.21;56.49
43298;BME280;28892;55.640;37.532;2022-09-09T00:53:34;99492.31;;;9.17;56.68
43298;BME280;28892;55.640;37.532;2022-09-09T00:56:12;99497.28;;;9.20;56.08
43298;BME280;28892;55.640;37.532;2022-09-09T00:58:42;99497.13;;;9.14;56.15
43298;BME280;28892;55.640;37.532;2022-09-09T01:01:11;99494.13;;;9.08;56.20
43298;BME280;28892;55.640;37.532;2022-09-09T01:03:42;99496.31;;;9.05;57.08
43298;BME280;28892;55.640;37.532;2022-09-09T01:06:28;99502.41;;;9.14;57.69
43298;BME280;28892;55.640;37.532;2022-09-09T01:09:21;99501.75;;;9.12;57.65
43298;BME280;28892;55.640;37.532;2022-09-09T01:12:11;99508.84;;;9.11;57.60
43298;BME280;28892;55.640;37.532;2022-09-09T01:14:48;99499.75;;;9.05;58.11
43298;BME280;28892;55.640;37.532;2022-09-09T01:17:34;99507.03;;;8.95;58.42
43298;BME280;28892;55.640;37.532;2022-09-09T01:28:34;99509.16;;;8.91;58.13
43298;BME280;28892;55.640;37.532;2022-09-09T01:31:07;99515.81;;;8.96;57.98
43298;BME280;28892;55.640;37.532;2022-09-09T01:33:41;99513.81;;;8.89;58.26
43298;BME280;28892;55.640;37.532;2022-09-09T01:36:12;99522.25;;;8.93;58.30
43298;BME280;28892;55.640;37.532;2022-09-09T01:38:49;99513.66;;;8.91;58.36
43298;BME280;28892;55.640;37.532;2022-09-09T01:41:16;99522.22;;;8.85;58.68
43298;BME280;28892;55.640;37.532;2022-09-09T01:43:57;99522.56;;;8.82;58.84
43298;BME280;28892;55.640;37.532;2022-09-09T01:46:27;99522.91;;;8.78;58.88
43298;BME280;28892;55.640;37.532;2022-09-09T01:48:54;99524.19;;;8.74;59.19
43298;BME280;28892;55.640;37.532;2022-09-09T01:51:21;99530.47;;;8.73;58.92
43298;BME280;28892;55.640;37.532;2022-09-09T01:53:48;99533.13;;;8.73;59.13
43298;BME280;28892;55.640;37.532;2022-09-09T01:59:05;99534.78;;;8.83;59.63
43298;BME280;28892;55.640;37.532;2022-09-09T02:04:39;99544.50;;;8.65;59.73
43298;BME280;28892;55.640;37.532;2022-09-09T02:10:32;99541.41;;;8.87;59.39
43298;BME280;28892;55.640;37.532;2022-09-09T02:13:13;99550.97;;;8.71;59.68
43298;BME280;28892;55.640;37.532;2022-09-09T02:21:51;99541.50;;;8.60;60.15
43298;BME280;28892;55.640;37.532;2022-09-09T02:24:19;99553.56;;;8.55;60.38
43298;BME280;28892;55.640;37.532;2022-09-09T02:26:54;99550.75;;;8.56;60.25
43298;BME280;28892;55.640;37.532;2022-09-09T02:29:34;99553.44;;;8.64;60.42
43298;BME280;28892;55.640;37.532;2022-09-09T02:32:03;99557.38;;;8.60;60.52
43298;BME280;28892;55.640;37.532;2022-09-09T02:34:38;99560.19;;;8.59;60.23
43298;BME280;28892;55.640;37.532;2022-09-09T02:37:08;99554.19;;;8.48;61.18
43298;BME280;28892;55.640;37.532;2022-09-09T02:39:36;99561.56;;;8.36;61.52
43298;BME280;28892;55.640;37.532;2022-09-09T02:42:04;99559.44;;;8.40;61.14
43298;BME280;28892;55.640;37.532;2022-09-09T02:44:31;99565.06;;;8.37;60.76
43298;BME280;28892;55.640;37.532;2022-09-09T02:49:51;99570.25;;;8.55;60.48
43298;BME280;28892;55.640;37.532;2022-09-09T02:52:32;99561.50;;;8.55;60.29
43298;BME280;28892;55.640;37.532;2022-09-09T02:55:17;99574.09;;;8.61;60.37
43298;BME280;28892;55.640;37.532;2022-09-09T02:57:47;99580.78;;;8.47;60.66
43298;BME280;28892;55.640;37.532;2022-09-09T03:00:15;99586.50;;;8.34;61.08
43298;BME280;28892;55.640;37.532;2022-09-09T03:02:41;99587.66;;;8.31;61.55
43298;BME280;28892;55.640;37.532;2022-09-09T03:05:07;99579.84;;;8.21;61.61
43298;BME280;28892;55.640;37.532;2022-09-09T03:07:33;99585.13;;;8.21;61.81
43298;BME280;28892;55.640;37.532;2022-09-09T03:10:00;99576.53;;;8.19;61.75
43298;BME280;28892;55.640;37.532;2022-09-09T03:12:28;99585.44;;;8.18;61.38
43298;BME280;28892;55.640;37.532;2022-09-09T03:14:54;99582.44;;;8.13;62.15
43298;BME280;28892;55.640;37.532;2022-09-09T03:17:20;99588.69;;;8.12;61.61
43298;BME280;28892;55.640;37.532;2022-09-09T03:19:51;99593.63;;;8.07;61.65
43298;BME280;28892;55.640;37.532;2022-09-09T03:22:20;99591.47;;;8.02;61.91
43298;BME280;28892;55.640;37.532;2022-09-09T03:24:46;99585.84;;;8.05;61.63
43298;BME280;28892;55.640;37.532;2022-09-09T03:27:12;99595.44;;;8.06;61.27
43298;BME280;28892;55.640;37.532;2022-09-09T03:29:40;99597.25;;;8.06;61.49
43298;BME280;28892;55.640;37.532;2022-09-09T03:32:09;99595.75;;;8.03;61.67
43298;BME280;28892;55.640;37.532;2022-09-09T03:34:39;99593.50;;;8.08;61.38
43298;BME280;28892;55.640;37.532;2022-09-09T03:37:08;99598.78;;;8.08;61.83
43298;BME280;28892;55.640;37.532;2022-09-09T03:39:35;99596.81;;;8.10;61.54
43298;BME280;28892;55.640;37.532;2022-09-09T03:42:01;99605.19;;;8.06;61.39
43298;BME280;28892;55.640;37.532;2022-09-09T03:44:30;99609.59;;;7.97;61.72
43298;BME280;28892;55.640;37.532;2022-09-09T03:46:56;99614.88;;;7.97;62.68
43298;BME280;28892;55.640;37.532;2022-09-09T03:49:22;99604.47;;;7.95;62.18
43298;BME280;28892;55.640;37.532;2022-09-09T03:51:49;99611.41;;;7.96;62.54
43298;BME280;28892;55.640;37.532;2022-09-09T03:54:14;99612.53;;;7.94;62.70
43298;BME280;28892;55.640;37.532;2022-09-09T03:56:40;99625.75;;;7.94;62.41
43298;BME280;28892;55.640;37.532;2022-09-09T03:59:08;99620.97;;;7.97;62.27
43298;BME280;28892;55.640;37.532;2022-09-09T04:01:34;99626.66;;;8.03;61.97
43298;BME280;28892;55.640;37.532;2022-09-09T04:04:00;99627.13;;;8.06;62.09
43298;BME280;28892;55.640;37.532;2022-09-09T04:06:28;99622.56;;;8.08;61.91
43298;BME280;28892;55.640;37.532;2022-09-09T04:08:55;99620.41;;;8.12;61.73
43298;BME280;28892;55.640;37.532;2022-09-09T04:11:22;99624.09;;;8.19;61.39
43298;BME280;28892;55.640;37.532;2022-09-09T04:13:50;99630.25;;;8.28;61.19
43298;BME280;28892;55.640;37.532;2022-09-09T04:16:17;99630.94;;;8.30;60.55
43298;BME280;28892;55.640;37.532;2022-09-09T04:18:43;99631.78;;;8.39;60.81
43298;BME280;28892;55.640;37.532;2022-09-09T04:21:10;99637.09;;;8.39;59.99
43298;BME280;28892;55.640;37.532;2022-09-09T04:23:38;99635.25;;;8.39;60.51
43298;BME280;28892;55.640;37.532;2022-09-09T04:26:05;99633.31;;;8.50;60.12
43298;BME280;28892;55.640;37.532;2022-09-09T04:28:35;99633.56;;;8.57;60.00
43298;BME280;28892;55.640;37.532;2022-09-09T04:31:10;99637.06;;;8.65;60.44
43298;BME280;28892;55.640;37.532;2022-09-09T04:33:39;99643.50;;;8.63;60.18
43298;BME280;28892;55.640;37.532;2022-09-09T04:36:06;99633.63;;;8.73;59.41
43298;BME280;28892;55.640;37.532;2022-09-09T04:38:32;99637.31;;;8.89;59.05
43298;BME280;28892;55.640;37.532;2022-09-09T04:40:58;99636.19;;;9.00;59.10
43298;BME280;28892;55.640;37.532;2022-09-09T04:43:24;99645.34;;;9.22;58.54
43298;BME280;28892;55.640;37.532;2022-09-09T04:45:51;99644.22;;;9.41;57.79
43298;BME280;28892;55.640;37.532;2022-09-09T04:48:19;99643.41;;;9.66;57.28
43298;BME280;28892;55.640;37.532;2022-09-09T04:50:59;99651.47;;;10.05;57.24
43298;BME280;28892;55.640;37.532;2022-09-09T04:53:26;99650.28;;;10.25;55.68
43298;BME280;28892;55.640;37.532;2022-09-09T04:56:01;99647.88;;;10.63;55.17
43298;BME280;28892;55.640;37.532;2022-09-09T04:58:27;99651.53;;;10.62;54.48
43298;BME280;28892;55.640;37.532;2022-09-09T05:00:53;99656.66;;;10.64;55.21
43298;BME280;28892;55.640;37.532;2022-09-09T05:03:20;99661.06;;;10.80;55.09
43298;BME280;28892;55.640;37.532;2022-09-09T05:05:46;99656.16;;;11.00;54.16
43298;BME280;28892;55.640;37.532;2022-09-09T05:08:13;99660.41;;;11.09;53.80
43298;BME280;28892;55.640;37.532;2022-09-09T05:10:39;99663.47;;;11.29;53.34
43298;BME280;28892;55.640;37.532;2022-09-09T05:13:05;99668.44;;;11.56;51.53
43298;BME280;28892;55.640;37.532;2022-09-09T05:15:32;99661.88;;;11.67;51.68
43298;BME280;28892;55.640;37.532;2022-09-09T05:17:59;99671.16;;;11.71;51.01
43298;BME280;28892;55.640;37.532;2022-09-09T05:20:26;99662.09;;;11.80;50.84
43298;BME280;28892;55.640;37.532;2022-09-09T05:22:53;99674.94;;;11.92;50.29
43298;BME280;28892;55.640;37.532;2022-09-09T05:25:20;99672.91;;;12.17;50.18
43298;BME280;28892;55.640;37.532;2022-09-09T05:27:48;99677.44;;;12.17;49.10
43298;BME280;28892;55.640;37.532;2022-09-09T05:30:15;99670.47;;;12.15;49.07
43298;BME280;28892;55.640;37.532;2022-09-09T05:32:40;99680.53;;;12.35;48.60
43298;BME280;28892;55.640;37.532;2022-09-09T05:35:06;99667.47;;;12.49;48.08
43298;BME280;28892;55.640;37.532;2022-09-09T05:37:35;99663.41;;;12.53;47.89
43298;BME280;28892;55.640;37.532;2022-09-09T05:40:08;99674.22;;;12.66;48.14
43298;BME280;28892;55.640;37.532;2022-09-09T05:42:36;99670.75;;;12.81;47.37
43298;BME280;28892;55.640;37.532;2022-09-09T05:45:03;99670.25;;;12.92;47.27
43298;BME280;28892;55.640;37.532;2022-09-09T05:47:29;99673.63;;;13.01;47.17
43298;BME280;28892;55.640;37.532;2022-09-09T05:49:55;99677.38;;;13.07;47.02
43298;BME280;28892;55.640;37.532;2022-09-09T05:52:21;99679.13;;;12.99;47.33
43298;BME280;28892;55.640;37.532;2022-09-09T05:54:48;99672.84;;;13.01;47.71
43298;BME280;28892;55.640;37.532;2022-09-09T05:57:13;99670.91;;;13.31;47.12
43298;BME280;28892;55.640;37.532;2022-09-09T05:59:39;99679.31;;;13.50;46.25
43298;BME280;28892;55.640;37.532;2022-09-09T06:02:05;99678.44;;;13.64;46.72
43298;BME280;28892;55.640;37.532;2022-09-09T06:04:35;99678.59;;;13.85;46.38
43298;BME280;28892;55.640;37.532;2022-09-09T06:07:02;99671.03;;;13.88;44.86
43298;BME280;28892;55.640;37.532;2022-09-09T06:09:29;99676.28;;;13.75;44.10
43298;BME280;28892;55.640;37.532;2022-09-09T06:11:55;99681.31;;;13.91;42.93
43298;BME280;28892;55.640;37.532;2022-09-09T06:14:23;99685.84;;;13.69;42.63
43298;BME280;28892;55.640;37.532;2022-09-09T06:16:51;99680.19;;;13.57;42.55
43298;BME280;28892;55.640;37.532;2022-09-09T06:19:20;99686.66;;;13.11;42.62
43298;BME280;28892;55.640;37.532;2022-09-09T06:21:50;99692.59;;;12.91;42.81
43298;BME280;28892;55.640;37.532;2022-09-09T06:24:25;99688.63;;;12.87;43.18
43298;BME280;28892;55.640;37.532;2022-09-09T06:26:51;99703.16;;;12.84;43.42
43298;BME280;28892;55.640;37.532;2022-09-09T06:29:21;99695.94;;;13.15;43.03
43298;BME280;28892;55.640;37.532;2022-09-09T06:31:47;99696.78;;;13.01;42.81
43298;BME280;28892;55.640;37.532;2022-09-09T06:34:19;99699.72;;;13.43;42.60
43298;BME280;28892;55.640;37.532;2022-09-09T06:36:49;99708.44;;;13.73;42.17
43298;BME280;28892;55.640;37.532;2022-09-09T06:39:15;99709.41;;;13.65;42.33
43298;BME280;28892;55.640;37.532;2022-09-09T06:41:42;99712.38;;;13.99;41.64
43298;BME280;28892;55.640;37.532;2022-09-09T06:44:17;99704.59;;;14.04;41.05
43298;BME280;28892;55.640;37.532;2022-09-09T06:46:44;99710.47;;;13.71;41.16
43298;BME280;28892;55.640;37.532;2022-09-09T06:49:13;99712.44;;;13.62;41.34
43298;BME280;28892;55.640;37.532;2022-09-09T06:51:40;99706.59;;;13.52;42.10
43298;BME280;28892;55.640;37.532;2022-09-09T06:54:11;99723.41;;;13.37;41.88
43298;BME280;28892;55.640;37.532;2022-09-09T06:56:39;99723.34;;;13.31;41.99
43298;BME280;28892;55.640;37.532;2022-09-09T06:59:15;99723.41;;;13.52;42.23
43298;BME280;28892;55.640;37.532;2022-09-09T07:01:42;99724.13;;;13.61;41.02
43298;BME280;28892;55.640;37.532;2022-09-09T07:04:13;99719.59;;;13.62;41.07
43298;BME280;28892;55.640;37.532;2022-09-09T07:06:43;99725.84;;;13.91;40.13
43298;BME280;28892;55.640;37.532;2022-09-09T07:09:15;99721.94;;;14.15;40.07
43298;BME280;28892;55.640;37.532;2022-09-09T07:11:46;99727.53;;;14.84;39.36
43298;BME280;28892;55.640;37.532;2022-09-09T07:14:13;99727.53;;;14.56;38.89
43298;BME280;28892;55.640;37.532;2022-09-09T07:16:42;99734.63;;;14.13;39.14
43298;BME280;28892;55.640;37.532;2022-09-09T07:19:09;99733.28;;;13.95;38.55
43298;BME280;28892;55.640;37.532;2022-09-09T07:21:36;99732.47;;;13.58;40.05
43298;BME280;28892;55.640;37.532;2022-09-09T07:24:02;99737.19;;;13.41;39.89
43298;BME280;28892;55.640;37.532;2022-09-09T07:26:30;99733.66;;;13.34;40.39
43298;BME280;28892;55.640;37.532;2022-09-09T07:28:58;99735.84;;;13.30;41.02
43298;BME280;28892;55.640;37.532;2022-09-09T07:31:25;99740.63;;;13.35;40.35
43298;BME280;28892;55.640;37.532;2022-09-09T07:33:53;99748.72;;;13.26;40.23
43298;BME280;28892;55.640;37.532;2022-09-09T07:36:24;99752.56;;;13.24;40.34
43298;BME280;28892;55.640;37.532;2022-09-09T07:38:57;99762.31;;;13.17;40.74
43298;BME280;28892;55.640;37.532;2022-09-09T07:41:27;99755.72;;;13.12;41.21
43298;BME280;28892;55.640;37.532;2022-09-09T07:43:54;99754.75;;;13.35;40.39
43298;BME280;28892;55.640;37.532;2022-09-09T07:46:23;99764.25;;;13.08;40.91
43298;BME280;28892;55.640;37.532;2022-09-09T07:48:52;99769.13;;;12.89;41.18
43298;BME280;28892;55.640;37.532;2022-09-09T07:51:22;99767.38;;;12.81;41.70
43298;BME280;28892;55.640;37.532;2022-09-09T07:53:55;99769.88;;;12.98;41.63
43298;BME280;28892;55.640;37.532;2022-09-09T07:56:23;99770.59;;;13.07;41.34
43298;BME280;28892;55.640;37.532;2022-09-09T07:58:51;99774.72;;;13.09;41.13
43298;BME280;28892;55.640;37.532;2022-09-09T08:01:21;99772.88;;;13.10;41.26
43298;BME280;28892;55.640;37.532;2022-09-09T08:03:53;99775.28;;;13.05;41.77
43298;BME280;28892;55.640;37.532;2022-09-09T08:06:20;99777.56;;;12.93;41.44
43298;BME280;28892;55.640;37.532;2022-09-09T08:08:50;99783.44;;;13.03;41.95
43298;BME280;28892;55.640;37.532;2022-09-09T08:11:16;99779.38;;;13.37;40.99
43298;BME280;28892;55.640;37.532;2022-09-09T08:13:43;99774.91;;;13.75;40.87
43298;BME280;28892;55.640;37.532;2022-09-09T08:16:16;99776.75;;;14.46;39.51
43298;BME280;28892;55.640;37.532;2022-09-09T08:18:42;99768.25;;;14.86;38.44
43298;BME280;28892;55.640;37.532;2022-09-09T08:21:14;99766.22;;;14.66;38.16
43298;BME280;28892;55.640;37.532;2022-09-09T08:23:41;99777.47;;;14.84;38.23
43298;BME280;28892;55.640;37.532;2022-09-09T08:26:11;99782.97;;;14.53;38.25
43298;BME280;28892;55.640;37.532;2022-09-09T08:28:38;99793.19;;;14.21;38.22
43298;BME280;28892;55.640;37.532;2022-09-09T08:31:16;99786.53;;;14.10;38.67
43298;BME280;28892;55.640;37.532;2022-09-09T08:33:44;99790.97;;;13.81;38.80
43298;BME280;28892;55.640;37.532;2022-09-09T08:36:19;99795.72;;;13.64;39.31
43298;BME280;28892;55.640;37.532;2022-09-09T08:38:52;99794.34;;;13.53;39.26
43298;BME280;28892;55.640;37.532;2022-09-09T08:44:28;99780.25;;;15.53;37.00
43298;BME280;28892;55.640;37.532;2022-09-09T08:53:34;99788.53;;;17.13;34.03
43298;BME280;28892;55.640;37.532;2022-09-09T08:55:45;99788.53;;;17.06;33.84
43298;BME280;28892;55.640;37.532;2022-09-09T08:58:26;99789.66;;;16.51;34.40
43298;BME280;28892;55.640;37.532;2022-09-09T09:03:48;99797.66;;;15.35;35.58
43298;BME280;28892;55.640;37.532;2022-09-09T09:06:39;99798.47;;;15.29;36.38
43298;BME280;28892;55.640;37.532;2022-09-09T09:09:36;99798.97;;;15.59;36.39
43298;BME280;28892;55.640;37.532;2022-09-09T09:12:15;99803.44;;;16.08;35.76
43298;BME280;28892;55.640;37.532;2022-09-09T09:14:43;99789.75;;;15.69;35.05
43298;BME280;28892;55.640;37.532;2022-09-09T09:17:19;99795.13;;;15.27;35.67
43298;BME280;28892;55.640;37.532;2022-09-09T09:19:48;99797.50;;;14.73;37.09
43298;BME280;28892;55.640;37.532;2022-09-09T09:25:21;99805.72;;;14.21;38.94
43298;BME280;28892;55.640;37.532;2022-09-09T09:30:40;99806.41;;;13.86;39.58
43298;BME280;28892;55.640;37.532;2022-09-09T09:35:45;99796.81;;;13.92;39.31
43298;BME280;28892;55.640;37.532;2022-09-09T09:38:20;99796.69;;;14.22;38.40
43298;BME280;28892;55.640;37.532;2022-09-09T09:40:53;99804.72;;;15.07;37.13
43298;BME280;28892;55.640;37.532;2022-09-09T09:45:56;99790.69;;;15.47;35.71
43298;BME280;28892;55.640;37.532;2022-09-09T09:48:25;99788.03;;;14.99;36.56
43298;BME280;28892;55.640;37.532;2022-09-09T09:50:59;99797.06;;;14.69;37.44
43298;BME280;28892;55.640;37.532;2022-09-09T09:53:31;99790.00;;;14.61;37.81
43298;BME280;28892;55.640;37.532;2022-09-09T09:58:48;99794.53;;;14.32;37.73
43298;BME280;28892;55.640;37.532;2022-09-09T10:03:51;99794.84;;;14.51;38.26
43298;BME280;28892;55.640;37.532;2022-09-09T10:06:17;99803.81;;;15.29;37.84
43298;BME280;28892;55.640;37.532;2022-09-09T10:08:46;99803.00;;;15.90;36.32
43298;BME280;28892;55.640;37.532;2022-09-09T10:19:16;99813.34;;;16.47;35.29
43298;BME280;28892;55.640;37.532;2022-09-09T10:25:01;99809.09;;;15.77;36.21
43298;BME280;28892;55.640;37.532;2022-09-09T10:27:35;99806.75;;;16.37;34.53
43298;BME280;28892;55.640;37.532;2022-09-09T10:38:42;99803.56;;;18.56;31.55
43298;BME280;28892;55.640;37.532;2022-09-09T10:41:22;99799.78;;;17.81;32.04
43298;BME280;28892;55.640;37.532;2022-09-09T10:44:13;99805.38;;;17.27;32.71
43298;BME280;28892;55.640;37.532;2022-09-09T10:46:59;99806.94;;;16.55;33.95
43298;BME280;28892;55.640;37.532;2022-09-09T10:52:32;99806.84;;;15.74;35.31
43298;BME280;28892;55.640;37.532;2022-09-09T10:55:14;99802.22;;;16.10;35.15
43298;BME280;28892;55.640;37.532;2022-09-09T10:57:46;99799.97;;;16.27;34.41
43298;BME280;28892;55.640;37.532;2022-09-09T11:00:25;99810.88;;;16.59;33.72
43298;BME280;28892;55.640;37.532;2022-09-09T11:03:00;99799.28;;;16.79;32.98
43298;BME280;28892;55.640;37.532;2022-09-09T11:05:31;99804.00;;;16.97;32.71
43298;BME280;28892;55.640;37.532;2022-09-09T11:08:13;99809.34;;;17.11;33.25
43298;BME280;28892;55.640;37.532;2022-09-09T11:10:57;99807.19;;;17.85;33.23
43298;BME280;28892;55.640;37.532;2022-09-09T11:13:42;99805.13;;;18.20;32.58
43298;BME280;28892;55.640;37.532;2022-09-09T11:18:40;99809.88;;;17.40;32.42
43298;BME280;28892;55.640;37.532;2022-09-09T11:21:13;99811.19;;;17.24;32.09
43298;BME280;28892;55.640;37.532;2022-09-09T11:23:47;99814.34;;;16.73;33.01
43298;BME280;28892;55.640;37.532;2022-09-09T11:26:27;99808.78;;;16.41;33.60
43298;BME280;28892;55.640;37.532;2022-09-09T11:40:24;99802.97;;;18.28;32.16
43298;BME280;28892;55.640;37.532;2022-09-09T11:45:40;99810.34;;;17.23;32.36
43298;BME280;28892;55.640;37.532;2022-09-09T11:48:34;99817.88;;;16.67;34.44
43298;BME280;28892;55.640;37.532;2022-09-09T11:51:07;99814.56;;;16.38;33.91
43298;BME280;28892;55.640;37.532;2022-09-09T11:53:34;99817.25;;;16.18;34.39
43298;BME280;28892;55.640;37.532;2022-09-09T11:56:02;99803.81;;;15.91;34.74
43298;BME280;28892;55.640;37.532;2022-09-09T11:58:34;99815.53;;;15.90;34.88
43298;BME280;28892;55.640;37.532;2022-09-09T12:01:13;99804.66;;;15.98;34.96
43298;BME280;28892;55.640;37.532;2022-09-09T12:03:50;99811.22;;;15.96;35.45
43298;BME280;28892;55.640;37.532;2022-09-09T12:06:30;99805.50;;;15.99;35.01
43298;BME280;28892;55.640;37.532;2022-09-09T12:09:19;99802.34;;;15.88;35.06
43298;BME280;28892;55.640;37.532;2022-09-09T12:11:48;99805.53;;;15.57;35.31
43298;BME280;28892;55.640;37.532;2022-09-09T12:14:38;99795.69;;;15.64;35.78
43298;BME280;28892;55.640;37.532;2022-09-09T12:17:25;99799.97;;;15.52;35.62
43298;BME280;28892;55.640;37.532;2022-09-09T12:20:13;99798.91;;;15.39;35.49
43298;BME280;28892;55.640;37.532;2022-09-09T12:28:22;99801.94;;;15.29;35.50
43298;BME280;28892;55.640;37.532;2022-09-09T12:31:00;99803.59;;;15.30;35.83
43298;BME280;28892;55.640;37.532;2022-09-09T12:33:37;99801.47;;;15.19;36.37
43298;BME280;28892;55.640;37.532;2022-09-09T12:36:06;99799.13;;;14.96;36.45
43298;BME280;28892;55.640;37.532;2022-09-09T12:38:39;99802.78;;;14.94;36.27
43298;BME280;28892;55.640;37.532;2022-09-09T12:41:05;99804.25;;;14.69;36.69
43298;BME280;28892;55.640;37.532;2022-09-09T12:43:31;99791.78;;;14.47;37.45
43298;BME280;28892;55.640;37.532;2022-09-09T12:46:00;99810.38;;;14.41;37.30
43298;BME280;28892;55.640;37.532;2022-09-09T12:48:36;99812.81;;;14.14;38.43
43298;BME280;28892;55.640;37.532;2022-09-09T12:51:07;99806.47;;;13.93;39.06
43298;BME280;28892;55.640;37.532;2022-09-09T12:53:44;99809.25;;;13.85;39.09
43298;BME280;28892;55.640;37.532;2022-09-09T12:56:20;99807.22;;;13.87;38.38
43298;BME280;28892;55.640;37.532;2022-09-09T12:58:49;99807.03;;;13.88;38.25
43298;BME280;28892;55.640;37.532;2022-09-09T13:01:28;99807.09;;;13.95;38.23
43298;BME280;28892;55.640;37.532;2022-09-09T13:03:55;99803.75;;;13.86;38.33
43298;BME280;28892;55.640;37.532;2022-09-09T13:06:24;99802.16;;;13.92;38.58
43298;BME280;28892;55.640;37.532;2022-09-09T13:08:52;99801.31;;;13.91;37.74
43298;BME280;28892;55.640;37.532;2022-09-09T13:11:29;99806.66;;;13.91;38.32
43298;BME280;28892;55.640;37.532;2022-09-09T13:13:57;99805.44;;;13.94;37.64
43298;BME280;28892;55.640;37.532;2022-09-09T13:19:00;99803.91;;;14.28;37.96
43298;BME280;28892;55.640;37.532;2022-09-09T13:21:34;99806.09;;;13.96;37.60
43298;BME280;28892;55.640;37.532;2022-09-09T13:24:01;99803.56;;;13.88;37.96
43298;BME280;28892;55.640;37.532;2022-09-09T13:26:30;99803.16;;;13.91;37.92
43298;BME280;28892;55.640;37.532;2022-09-09T13:29:09;99798.97;;;14.03;38.19
43298;BME280;28892;55.640;37.532;2022-09-09T13:31:42;99802.41;;;13.97;38.27
43298;BME280;28892;55.640;37.532;2022-09-09T13:34:26;99802.16;;;14.14;38.64
43298;BME280;28892;55.640;37.532;2022-09-09T13:37:00;99801.97;;;14.15;38.95
43298;BME280;28892;55.640;37.532;2022-09-09T13:39:34;99807.94;;;14.17;38.76
43298;BME280;28892;55.640;37.532;2022-09-09T13:42:02;99800.44;;;14.06;38.61
43298;BME280;28892;55.640;37.532;2022-09-09T13:44:31;99800.00;;;14.02;38.50
43298;BME280;28892;55.640;37.532;2022-09-09T13:47:18;99798.22;;;14.09;38.39
43298;BME280;28892;55.640;37.532;2022-09-09T13:49:47;99801.53;;;13.90;38.73
43298;BME280;28892;55.640;37.532;2022-09-09T13:52:18;99790.78;;;13.83;38.29
43298;BME280;28892;55.640;37.532;2022-09-09T13:54:51;99793.59;;;13.96;38.20
43298;BME280;28892;55.640;37.532;2022-09-09T13:57:22;99799.09;;;13.95;38.22
43298;BME280;28892;55.640;37.532;2022-09-09T13:59:52;99798.22;;;13.88;38.19
43298;BME280;28892;55.640;37.532;2022-09-09T14:02:20;99796.38;;;13.88;38.34
43298;BME280;28892;55.640;37.532;2022-09-09T14:04:48;99802.41;;;13.97;37.95
43298;BME280;28892;55.640;37.532;2022-09-09T14:07:18;99799.03;;;13.88;38.21
43298;BME280;28892;55.640;37.532;2022-09-09T14:09:44;99806.78;;;13.83;38.35
43298;BME280;28892;55.640;37.532;2022-09-09T14:12:15;99803.16;;;13.91;38.01
43298;BME280;28892;55.640;37.532;2022-09-09T14:14:42;99797.03;;;13.75;38.10
43298;BME280;28892;55.640;37.532;2022-09-09T14:17:08;99801.13;;;13.71;38.42
43298;BME280;28892;55.640;37.532;2022-09-09T14:19:34;99790.91;;;13.75;38.40
43298;BME280;28892;55.640;37.532;2022-09-09T14:22:00;99788.34;;;13.66;38.38
43298;BME280;28892;55.640;37.532;2022-09-09T14:24:27;99793.53;;;13.53;38.24
43298;BME280;28892;55.640;37.532;2022-09-09T14:26:54;99793.78;;;13.58;38.53
43298;BME280;28892;55.640;37.532;2022-09-09T14:29:19;99792.44;;;13.47;39.56
43298;BME280;28892;55.640;37.532;2022-09-09T14:31:45;99796.75;;;13.48;39.46
43298;BME280;28892;55.640;37.532;2022-09-09T14:34:11;99793.78;;;13.43;39.83
43298;BME280;28892;55.640;37.532;2022-09-09T14:36:37;99791.81;;;13.45;39.42
43298;BME280;28892;55.640;37.532;2022-09-09T14:39:03;99789.28;;;13.44;40.44
43298;BME280;28892;55.640;37.532;2022-09-09T14:41:30;99798.41;;;13.34;40.49
43298;BME280;28892;55.640;37.532;2022-09-09T14:43:55;99791.59;;;13.32;40.45
43298;BME280;28892;55.640;37.532;2022-09-09T14:46:21;99790.59;;;13.33;40.51
43298;BME280;28892;55.640;37.532;2022-09-09T14:48:47;99796.75;;;13.33;40.74
43298;BME280;28892;55.640;37.532;2022-09-09T14:51:21;99792.13;;;13.42;40.39
43298;BME280;28892;55.640;37.532;2022-09-09T14:53:48;99794.53;;;13.37;39.97
43298;BME280;28892;55.640;37.532;2022-09-09T14:56:19;99789.59;;;13.34;39.98
43298;BME280;28892;55.640;37.532;2022-09-09T14:58:47;99793.38;;;13.24;39.88
43298;BME280;28892;55.640;37.532;2022-09-09T15:01:15;99788.69;;;13.26;40.27
43298;BME280;28892;55.640;37.532;2022-09-09T15:03:43;99792.53;;;13.24;40.29
43298;BME280;28892;55.640;37.532;2022-09-09T15:06:14;99800.91;;;13.21;40.89